Terminal Aerodrome Forecast
Issued by NWS Denver/Boulder, CO

Home | Current Version | Previous Version | Text Only | Print | Product List | Glossary On
Versions: 1 2 3 4 5 6 7 8 9 10 11 12 13 14 15 16 17 18 19 20 21 22 23 24 25 26 27 28 29 30 31 32 33 34 35 36 37 38 39 40 41 42 43 44 45 46 47 48 49 50
000
FTUS45 KBOU 211346 AAA
TAFDEN
TAF AMD
KDEN 211346Z 2114/2218 22011KT P6SM FEW120 BKN200
     FM211500 25007KT P6SM FEW120 BKN200
     FM211600 VRB04KT P6SM FEW120 BKN200
     FM211800 04007KT P6SM SCT120 BKN200
      TEMPO 2122/2202 VRB15G28KT BKN120
     FM220200 17008KT P6SM FEW120 SCT200
     FM220500 21011KT P6SM FEW200=

USA.gov is the U.S. government's official web portal to all federal, state and local government web resources and services.